Time;durP1;ratioP1;P1;durP2;ratioP2;P2;SDS_P1;SDS_P2;PMS_P1;PMS_P2;Temp;Humidity;BMP_temperature;BMP_pressure;BME280_temperature;BME280_humidity;BME280_pressure;Samples;Min_cycle;Max_cycle;Signal;HPM_P1;HPM_P2
2021/07/13 00:02:25;;;;;;;11.77;10.77;;;22.60;99.90;;;;;;4956375;29;20172;-69
2021/07/13 00:04:51;;;;;;;11.33;10.37;;;22.70;99.90;;;;;;4956238;29;20196;-69
2021/07/13 00:07:17;;;;;;;12.13;11.20;;;22.60;99.90;;;;;;4956471;29;20438;-70
2021/07/13 00:09:46;;;;;;;12.07;10.97;;;22.70;99.90;;;;;;4939636;29;20255;-70
2021/07/13 00:12:11;;;;;;;11.13;10.13;;;22.60;99.90;;;;;;4956375;29;20531;-69
2021/07/13 00:14:37;;;;;;;12.17;10.97;;;22.60;99.90;;;;;;4939332;29;20558;-69
2021/07/13 00:17:06;;;;;;;11.97;10.97;;;22.60;99.90;;;;;;4956068;29;20490;-70
2021/07/13 00:19:33;;;;;;;12.70;11.60;;;22.70;99.90;;;;;;4956003;29;20183;-70
2021/07/13 00:21:59;;;;;;;11.57;10.67;;;22.70;99.90;;;;;;4956118;29;20831;-69
2021/07/13 00:24:24;;;;;;;12.43;11.43;;;22.60;99.90;;;;;;4955935;29;20518;-70
2021/07/13 00:26:50;;;;;;;13.03;11.93;;;22.50;99.90;;;;;;4955944;29;20194;-69
2021/07/13 00:29:16;;;;;;;12.10;10.90;;;22.50;99.90;;;;;;4955976;29;20184;-69
2021/07/13 00:31:41;;;;;;;10.77;9.87;;;22.60;99.90;;;;;;4956015;29;20192;-68
2021/07/13 00:34:07;;;;;;;11.97;10.87;;;22.50;99.90;;;;;;4955737;29;20626;-69
2021/07/13 00:36:32;;;;;;;12.30;11.00;;;22.30;99.90;;;;;;4955830;29;20247;-69
2021/07/13 00:39:01;;;;;;;11.97;10.83;;;22.20;99.90;;;;;;4955688;29;20645;-69
2021/07/13 00:41:26;;;;;;;12.83;11.53;;;22.10;99.90;;;;;;4955892;29;20564;-69
2021/07/13 00:43:52;;;;;;;12.53;11.40;;;22.20;99.90;;;;;;4955766;29;20467;-69
2021/07/13 00:46:18;;;;;;;13.03;11.93;;;22.30;99.90;;;;;;4955805;29;20211;-69
2021/07/13 00:48:43;;;;;;;13.37;12.20;;;22.10;99.90;;;;;;4955659;29;20223;-65
2021/07/13 00:51:10;;;;;;;13.07;11.93;;;22.10;99.90;;;;;;4955635;29;20267;-65
2021/07/13 00:53:39;;;;;;;12.00;11.00;;;22.10;99.90;;;;;;4955530;29;20176;-65
2021/07/13 00:56:04;;;;;;;12.60;11.30;;;22.00;99.90;;;;;;4938619;29;20431;-65
2021/07/13 00:58:30;;;;;;;13.70;12.50;;;22.00;99.90;;;;;;4955396;29;20415;-65
2021/07/13 01:00:56;;;;;;;13.57;12.37;;;22.10;99.90;;;;;;4955665;29;20176;-65
2021/07/13 01:03:21;;;;;;;12.30;11.20;;;22.20;99.90;;;;;;4955553;29;20271;-65
2021/07/13 01:05:51;;;;;;;13.17;11.97;;;22.20;99.90;;;;;;4955501;29;20203;-65
2021/07/13 01:08:25;;;;;;;12.17;11.07;;;22.30;99.90;;;;;;4938212;29;20191;-69
2021/07/13 01:11:16;;;;;;;12.07;11.07;;;22.50;99.90;;;;;;4955613;29;20434;-69
2021/07/13 01:13:46;;;;;;;13.03;11.73;;;22.50;99.90;;;;;;4955395;29;20495;-69
2021/07/13 01:16:14;;;;;;;12.77;11.63;;;22.40;99.90;;;;;;4955535;29;20420;-69
2021/07/13 01:18:47;;;;;;;13.23;12.03;;;22.20;99.90;;;;;;4955300;29;20483;-69
2021/07/13 01:21:31;;;;;;;12.23;11.20;;;22.40;99.90;;;;;;4955535;29;20428;-69
2021/07/13 01:24:14;;;;;;;11.30;10.20;;;22.50;99.90;;;;;;4955463;29;20427;-69
2021/07/13 01:27:02;;;;;;;11.53;10.33;;;22.60;99.90;;;;;;4955218;29;20530;-69
2021/07/13 01:29:29;;;;;;;11.60;10.50;;;22.60;99.90;;;;;;4955034;29;20442;-69
2021/07/13 01:31:57;;;;;;;12.10;10.97;;;22.80;99.90;;;;;;4955478;29;20931;-71
2021/07/13 01:34:34;;;;;;;10.97;9.97;;;22.80;99.90;;;;;;4955326;29;20603;-71
2021/07/13 01:37:03;;;;;;;13.00;11.70;;;22.80;99.90;;;;;;4955184;29;21015;-71
2021/07/13 01:39:29;;;;;;;12.17;11.07;;;22.80;99.90;;;;;;4954882;29;20444;-66
2021/07/13 01:41:58;;;;;;;10.90;9.90;;;22.80;99.90;;;;;;4955035;29;20439;-65
2021/07/13 01:44:25;;;;;;;12.53;11.43;;;22.70;99.90;;;;;;4955009;29;20439;-65
2021/07/13 01:46:51;;;;;;;15.77;12.10;;;22.40;99.90;;;;;;4954990;29;20436;-65
2021/07/13 01:49:21;;;;;;;11.93;10.83;;;22.20;99.90;;;;;;4938152;29;20439;-65
2021/07/13 01:51:51;;;;;;;12.67;11.57;;;22.20;99.90;;;;;;4955262;29;20442;-65
2021/07/13 01:54:17;;;;;;;12.07;11.03;;;22.30;99.90;;;;;;4954966;29;20558;-65
2021/07/13 01:56:49;;;;;;;13.10;11.70;;;22.40;99.90;;;;;;4954929;29;20431;-65
2021/07/13 01:59:18;;;;;;;12.80;11.67;;;22.30;99.90;;;;;;4937992;29;20432;-65
2021/07/13 02:01:46;;;;;;;13.00;11.80;;;22.30;99.90;;;;;;4955381;29;20435;-66
2021/07/13 02:04:13;;;;;;;12.80;11.70;;;22.20;99.90;;;;;;4956483;28;20490;-67
2021/07/13 02:06:41;;;;;;;12.90;11.80;;;22.00;99.90;;;;;;4958327;29;20515;-66
2021/07/13 02:09:09;;;;;;;12.23;11.13;;;22.10;99.90;;;;;;4958686;29;20908;-70
2021/07/13 02:11:36;;;;;;;14.67;13.27;;;22.10;99.90;;;;;;4958403;29;20932;-66
2021/07/13 02:14:01;;;;;;;14.00;12.60;;;22.20;99.90;;;;;;4958436;29;20523;-67
2021/07/13 02:16:27;;;;;;;14.23;12.77;;;22.20;99.90;;;;;;4958153;29;20431;-66
2021/07/13 02:18:53;;;;;;;12.83;11.17;;;22.20;99.90;;;;;;4958039;29;20184;-66
2021/07/13 02:21:19;;;;;;;14.80;13.40;;;22.10;99.90;;;;;;4958149;29;20685;-65
2021/07/13 02:23:45;;;;;;;12.80;11.70;;;22.00;99.90;;;;;;4958164;29;20427;-66
2021/07/13 02:26:28;;;;;;;13.20;12.00;;;22.00;99.90;;;;;;4958040;29;20428;-66
2021/07/13 02:29:02;;;;;;;13.73;12.33;;;22.00;99.90;;;;;;4957912;29;20904;-66
2021/07/13 02:31:34;;;;;;;13.70;12.40;;;22.00;99.90;;;;;;4958019;29;20514;-66
2021/07/13 02:34:09;;;;;;;13.83;12.53;;;22.00;99.90;;;;;;4957909;29;20507;-66
2021/07/13 02:36:41;;;;;;;13.97;12.77;;;21.90;99.90;;;;;;4957699;29;20431;-66
2021/07/13 02:39:08;;;;;;;14.57;13.17;;;21.80;99.90;;;;;;4940799;29;20438;-66
2021/07/13 02:41:34;;;;;;;13.40;12.07;;;22.00;99.90;;;;;;4957826;29;20502;-66
2021/07/13 02:44:02;;;;;;;15.17;13.67;;;22.00;99.90;;;;;;4957877;29;20435;-66
2021/07/13 02:46:29;;;;;;;16.33;14.50;;;22.00;99.90;;;;;;4957782;29;20955;-66
2021/07/13 02:48:56;;;;;;;15.33;14.00;;;21.90;99.90;;;;;;4957680;29;20439;-66
2021/07/13 02:51:26;;;;;;;15.13;13.53;;;21.50;99.90;;;;;;4940814;29;20942;-66
2021/07/13 02:53:54;;;;;;;16.70;14.90;;;21.60;99.90;;;;;;4957576;29;20479;-66
2021/07/13 02:56:22;;;;;;;16.43;14.93;;;21.50;99.90;;;;;;4957662;29;20428;-66
2021/07/13 02:58:49;;;;;;;17.00;15.40;;;21.60;99.90;;;;;;4957244;29;20495;-66
2021/07/13 03:01:15;;;;;;;17.40;15.60;;;21.50;99.90;;;;;;4956923;29;20428;-66
2021/07/13 03:03:41;;;;;;;16.53;15.00;;;21.40;99.90;;;;;;4957405;29;20456;-66
2021/07/13 03:06:08;;;;;;;16.90;15.30;;;21.40;99.90;;;;;;4957340;29;20524;-66
2021/07/13 03:08:34;;;;;;;18.37;16.53;;;21.50;99.90;;;;;;4957133;29;20407;-66
2021/07/13 03:11:02;;;;;;;17.73;15.40;;;21.60;99.90;;;;;;4957170;29;20416;-66
2021/07/13 03:13:28;;;;;;;17.20;15.33;;;21.60;99.90;;;;;;4957291;29;20815;-66
2021/07/13 03:15:54;;;;;;;15.57;14.17;;;21.70;99.90;;;;;;4940161;29;20435;-66
2021/07/13 03:18:19;;;;;;;17.47;15.70;;;21.60;99.90;;;;;;4956941;29;20937;-66
2021/07/13 03:20:48;;;;;;;18.07;16.23;;;21.60;99.90;;;;;;4956964;29;20180;-66
2021/07/13 03:23:20;;;;;;;16.67;15.03;;;21.50;99.90;;;;;;4957010;29;20176;-66
2021/07/13 03:25:48;;;;;;;19.17;16.30;;;21.40;99.90;;;;;;4956935;29;20494;-65
2021/07/13 03:28:15;;;;;;;17.00;15.30;;;21.50;99.90;;;;;;4956683;29;20443;-66
2021/07/13 03:30:42;;;;;;;17.90;16.20;;;21.50;99.90;;;;;;4956827;29;20431;-66
2021/07/13 03:33:10;;;;;;;17.60;15.90;;;21.30;99.90;;;;;;4956863;29;20767;-66
2021/07/13 03:35:36;;;;;;;17.50;15.90;;;21.40;99.90;;;;;;4956637;29;20964;-66
2021/07/13 03:38:02;;;;;;;20.23;18.20;;;21.30;99.90;;;;;;4939849;29;20431;-66
2021/07/13 03:40:28;;;;;;;19.00;16.90;;;21.30;99.90;;;;;;4956832;29;20450;-65
2021/07/13 03:42:55;;;;;;;18.70;16.90;;;21.20;99.90;;;;;;4956725;29;20443;-66
2021/07/13 03:45:22;;;;;;;18.23;16.43;;;21.30;99.90;;;;;;4956659;29;20897;-66
2021/07/13 03:47:50;;;;;;;18.33;16.50;;;21.20;99.90;;;;;;4956692;29;20428;-65
2021/07/13 03:50:18;;;;;;;16.83;15.20;;;21.20;99.90;;;;;;4939826;29;20934;-66
2021/07/13 03:52:44;;;;;;;19.37;17.47;;;21.40;99.90;;;;;;4956428;29;20442;-66
2021/07/13 03:55:11;;;;;;;18.33;16.53;;;21.20;99.90;;;;;;4956390;29;20479;-66
2021/07/13 03:57:38;;;;;;;20.13;17.20;;;21.30;99.90;;;;;;4956484;29;20436;-66
2021/07/13 04:00:08;;;;;;;17.40;15.70;;;21.50;99.90;;;;;;4956185;29;20428;-66
2021/07/13 04:02:33;;;;;;;18.37;16.47;;;21.60;99.90;;;;;;4956194;29;20435;-66
2021/07/13 04:04:59;;;;;;;16.60;15.00;;;21.80;99.90;;;;;;4956091;29;20459;-66
2021/07/13 04:07:25;;;;;;;16.40;14.90;;;22.10;99.90;;;;;;4955572;29;20184;-66
2021/07/13 04:09:50;;;;;;;16.37;14.77;;;22.20;99.90;;;;;;4956105;29;20671;-66
2021/07/13 04:12:16;;;;;;;14.00;12.60;;;22.50;99.90;;;;;;4956147;29;20188;-66
2021/07/13 04:14:41;;;;;;;16.13;14.50;;;22.20;99.90;;;;;;4939071;29;20230;-66
2021/07/13 04:17:07;;;;;;;15.40;13.90;;;21.90;99.90;;;;;;4955897;29;20199;-66
2021/07/13 04:19:32;;;;;;;16.13;14.57;;;22.70;99.90;;;;;;4955786;29;20270;-66
2021/07/13 04:21:58;;;;;;;13.97;12.67;;;22.90;99.90;;;;;;4955977;29;20180;-66
2021/07/13 04:24:23;;;;;;;13.93;12.60;;;22.80;99.90;;;;;;4955899;29;20184;-66
2021/07/13 04:26:49;;;;;;;13.87;12.57;;;23.10;99.90;;;;;;4955530;28;20188;-66
2021/07/13 04:29:14;;;;;;;15.57;12.73;;;23.80;99.90;;;;;;4955738;29;20216;-66
2021/07/13 04:31:40;;;;;;;14.63;12.17;;;24.10;99.90;;;;;;4956195;29;20226;-66
2021/07/13 04:34:09;;;;;;;12.53;11.33;;;24.20;10.70;;;;;;4955688;29;20212;-66
2021/07/13 04:36:36;;;;;;;15.13;13.27;;;24.10;55.90;;;;;;4955569;29;20521;-66
2021/07/13 04:39:04;;;;;;;14.43;13.10;;;23.50;87.00;;;;;;4955623;29;20423;-66
2021/07/13 04:41:30;;;;;;;13.30;12.10;;;23.50;99.90;;;;;;4955702;29;20449;-66
2021/07/13 04:43:56;;;;;;;14.50;12.80;;;23.90;99.90;;;;;;4955554;29;20439;-65
2021/07/13 04:46:22;;;;;;;14.40;13.10;;;24.70;44.60;;;;;;4955761;29;20451;-66
2021/07/13 04:48:47;;;;;;;15.40;13.83;;;25.80;1.00;;;;;;4955614;29;20435;-66
2021/07/13 04:51:15;;;;;;;12.10;11.00;;;26.20;99.90;;;;;;4939140;29;20521;-66
2021/07/13 04:53:41;;;;;;;12.60;11.30;;;26.30;28.90;;;;;;4955343;29;20180;-66
2021/07/13 04:56:07;;;;;;;12.90;11.73;;;26.40;99.90;;;;;;4955606;29;20761;-66
2021/07/13 04:58:32;;;;;;;13.27;11.90;;;26.50;1.00;;;;;;4955227;29;20439;-66
2021/07/13 05:00:58;;;;;;;13.40;12.10;;;26.30;1.00;;;;;;4955510;29;20234;-65
2021/07/13 05:03:23;;;;;;;12.53;11.43;;;25.40;99.90;;;;;;4955507;29;20196;-66
2021/07/13 05:05:49;;;;;;;13.13;11.67;;;25.00;1.00;;;;;;4955307;29;20203;-66
2021/07/13 05:08:14;;;;;;;13.70;12.30;;;24.50;1.00;;;;;;4955223;29;20195;-66
2021/07/13 05:10:40;;;;;;;14.50;13.10;;;23.80;72.00;;;;;;4955367;29;20188;-65
2021/07/13 05:13:09;;;;;;;15.03;13.53;;;23.70;99.90;;;;;;4955001;29;20488;-65
2021/07/13 05:15:35;;;;;;;13.50;12.10;;;23.10;99.90;;;;;;4955365;29;20556;-65
2021/07/13 05:18:00;;;;;;;15.27;13.77;;;23.10;99.90;;;;;;4955069;29;20446;-66
2021/07/13 05:20:26;;;;;;;15.47;13.97;;;23.10;99.90;;;;;;4955206;29;20176;-66
2021/07/13 05:22:58;;;;;;;16.10;14.40;;;23.10;99.90;;;;;;4955234;29;20181;-66
2021/07/13 05:25:24;;;;;;;16.43;14.73;;;23.10;99.90;;;;;;4955317;29;20203;-66
2021/07/13 05:27:49;;;;;;;17.47;15.23;;;23.10;99.90;;;;;;4955144;29;20439;-66
2021/07/13 05:30:17;;;;;;;15.97;14.47;;;23.30;99.90;;;;;;4955285;29;20279;-65
2021/07/13 05:32:42;;;;;;;14.50;13.03;;;23.50;99.90;;;;;;4955173;29;20637;-66
2021/07/13 05:35:08;;;;;;;15.57;14.07;;;23.70;99.90;;;;;;4955343;29;20475;-65
2021/07/13 05:37:35;;;;;;;14.30;12.47;;;23.90;99.90;;;;;;4955089;28;20263;-65
2021/07/13 05:40:03;;;;;;;15.40;13.90;;;24.20;99.90;;;;;;4958140;29;20514;-65
2021/07/13 05:42:29;;;;;;;14.20;12.80;;;24.90;1.00;;;;;;4942010;29;20431;-66
2021/07/13 05:44:55;;;;;;;15.67;14.00;;;25.20;1.00;;;;;;4958936;29;20431;-65
2021/07/13 05:47:21;;;;;;;15.70;14.30;;;25.20;1.00;;;;;;4958640;29;20431;-64
2021/07/13 05:49:47;;;;;;;15.07;13.83;;;25.20;1.00;;;;;;4958632;29;20435;-64
2021/07/13 05:52:12;;;;;;;15.33;14.03;;;25.10;1.00;;;;;;4958740;29;20184;-64
2021/07/13 05:54:38;;;;;;;14.70;13.30;;;25.00;1.00;;;;;;4958558;29;20208;-64
2021/07/13 05:57:03;;;;;;;13.80;11.97;;;25.20;1.00;;;;;;4958429;29;20246;-64
2021/07/13 05:59:29;;;;;;;13.70;12.40;;;25.50;1.00;;;;;;4958063;29;20602;-64
2021/07/13 06:01:55;;;;;;;20.03;13.77;;;25.40;1.00;;;;;;4940892;29;20177;-66
2021/07/13 06:04:21;;;;;;;15.03;13.63;;;25.90;1.00;;;;;;4941526;29;20369;-65
2021/07/13 06:06:46;;;;;;;15.37;13.77;;;26.60;65.50;;;;;;4941536;29;20435;-65
2021/07/13 06:09:12;;;;;;;15.47;14.07;;;26.70;43.60;;;;;;4958554;29;20624;-65
2021/07/13 06:11:37;;;;;;;14.60;13.33;;;27.20;1.00;;;;;;4958547;29;20235;-65
2021/07/13 06:14:03;;;;;;;13.90;12.70;;;26.70;42.20;;;;;;4958297;29;20219;-65
2021/07/13 06:16:29;;;;;;;15.03;13.57;;;26.60;1.00;;;;;;4958298;29;20235;-65
2021/07/13 06:18:54;;;;;;;16.67;14.93;;;26.70;1.00;;;;;;4962433;28;20175;-65
2021/07/13 06:21:20;;;;;;;17.30;15.27;;;26.80;1.00;;;;;;4977317;28;20207;-65
2021/07/13 06:23:45;;;;;;;14.77;13.27;;;27.00;1.00;;;;;;4976778;28;20183;-65
2021/07/13 06:26:11;;;;;;;13.90;12.50;;;28.60;1.00;;;;;;4977537;28;20510;-65
2021/07/13 06:28:36;;;;;;;15.13;13.80;;;30.10;99.90;;;;;;4977253;28;20255;-65
2021/07/13 06:31:03;;;;;;;15.00;13.70;;;30.80;1.00;;;;;;4977218;28;20168;-65
2021/07/13 06:33:28;;;;;;;14.30;13.00;;;31.60;1.00;;;;;;4977444;28;20186;-64
2021/07/13 06:35:54;;;;;;;13.50;12.20;;;33.10;1.00;;;;;;4976842;28;20462;-65
2021/07/13 06:38:20;;;;;;;13.33;12.23;;;33.50;1.00;;;;;;4976898;28;20187;-66
2021/07/13 06:40:45;;;;;;;13.50;12.40;;;33.50;1.00;;;;;;4977127;28;20202;-66
2021/07/13 06:43:11;;;;;;;13.73;12.53;;;33.80;1.00;;;;;;4975303;28;20266;-66
2021/07/13 06:45:36;;;;;;;13.77;12.57;;;34.70;1.00;;;;;;4975171;28;20186;-66
2021/07/13 06:48:02;;;;;;;13.07;12.03;;;34.90;1.00;;;;;;4974981;28;20263;-67
2021/07/13 06:50:28;;;;;;;14.23;12.80;;;35.00;1.00;;;;;;4974649;28;20522;-69
2021/07/13 06:52:55;;;;;;;14.67;13.33;;;33.50;1.00;;;;;;4975423;28;20445;-71
2021/07/13 06:55:20;;;;;;;13.93;12.83;;;32.00;6.20;;;;;;4958052;28;20219;-70
2021/07/13 06:57:46;;;;;;;13.77;12.67;;;33.10;1.00;;;;;;4976233;28;20465;-74
2021/07/13 07:00:12;;;;;;;15.30;14.00;;;33.70;1.00;;;;;;4976413;28;20266;-70
2021/07/13 07:02:38;;;;;;;14.63;13.43;;;33.00;1.00;;;;;;4976939;28;20180;-70
2021/07/13 07:05:05;;;;;;;14.60;13.40;;;32.90;1.00;;;;;;4976600;28;20841;-70
2021/07/13 07:07:31;;;;;;;13.70;12.03;;;32.20;8.20;;;;;;4977031;28;20235;-70
2021/07/13 07:09:56;;;;;;;13.63;12.47;;;32.00;96.70;;;;;;4976945;28;20431;-70
2021/07/13 07:12:22;;;;;;;13.73;12.60;;;32.80;1.00;;;;;;4977214;28;20175;-70
2021/07/13 07:14:47;;;;;;;14.07;12.97;;;33.20;1.00;;;;;;4977237;28;20572;-70
2021/07/13 07:17:13;;;;;;;14.63;13.07;;;33.70;1.00;;;;;;4976358;28;20647;-70
2021/07/13 07:19:38;;;;;;;12.80;11.70;;;32.60;1.00;;;;;;4976497;28;20177;-70
2021/07/13 07:22:04;;;;;;;12.27;11.30;;;33.40;1.00;;;;;;4976507;28;20632;-70
2021/07/13 07:24:30;;;;;;;13.67;12.50;;;34.50;1.00;;;;;;4959404;28;20610;-70
2021/07/13 07:26:55;;;;;;;13.80;12.53;;;34.00;1.00;;;;;;4959260;28;20270;-70
2021/07/13 07:29:21;;;;;;;12.60;11.43;;;33.80;1.00;;;;;;4976278;28;20230;-70
2021/07/13 07:31:46;;;;;;;13.30;12.00;;;33.50;1.00;;;;;;4976549;28;20202;-70
2021/07/13 07:34:12;;;;;;;12.90;11.90;;;34.40;1.00;;;;;;4976462;28;20199;-74
2021/07/13 07:36:37;;;;;;;12.80;11.70;;;33.80;1.00;;;;;;4957393;28;20621;-70
2021/07/13 07:39:04;;;;;;;13.87;12.77;;;32.70;1.00;;;;;;4956622;28;20195;-70
2021/07/13 07:41:30;;;;;;;14.27;13.07;;;32.30;1.00;;;;;;4939711;29;20561;-70
2021/07/13 07:43:56;;;;;;;13.93;12.50;;;31.90;3.60;;;;;;4956536;28;20443;-70
2021/07/13 07:46:22;;;;;;;14.20;12.73;;;31.00;99.90;;;;;;4956561;29;20768;-70
2021/07/13 07:48:47;;;;;;;13.73;12.37;;;31.20;99.90;;;;;;4956426;29;20184;-70
2021/07/13 07:51:13;;;;;;;12.90;11.80;;;30.40;1.00;;;;;;4956508;29;20192;-70
2021/07/13 07:53:39;;;;;;;13.73;12.50;;;29.50;99.90;;;;;;4956433;28;20188;-70
2021/07/13 07:56:05;;;;;;;13.47;12.27;;;29.50;31.60;;;;;;4956753;29;20553;-70
2021/07/13 07:58:30;;;;;;;13.83;12.70;;;29.90;1.00;;;;;;4956143;29;20181;-70
2021/07/13 08:00:56;;;;;;;12.60;11.60;;;30.40;1.00;;;;;;4955875;28;20440;-69
2021/07/13 08:03:21;;;;;;;13.23;12.03;;;31.30;99.90;;;;;;4956583;29;20297;-68
2021/07/13 08:05:47;;;;;;;13.37;12.27;;;30.80;99.90;;;;;;4956259;29;20291;-68
2021/07/13 08:08:13;;;;;;;13.67;12.60;;;30.00;1.00;;;;;;4956093;29;20255;-68
2021/07/13 08:10:38;;;;;;;13.70;12.50;;;29.20;99.90;;;;;;4956059;28;20199;-68
2021/07/13 08:13:04;;;;;;;12.40;11.40;;;28.90;1.00;;;;;;4956300;29;20558;-69
2021/07/13 08:15:31;;;;;;;13.17;11.90;;;28.20;99.90;;;;;;4952519;29;20216;-68
2021/07/13 08:17:56;;;;;;;12.70;11.80;;;28.10;1.00;;;;;;4936722;29;20187;-68
2021/07/13 08:20:22;;;;;;;12.93;11.83;;;27.70;1.00;;;;;;4936942;29;20428;-68
2021/07/13 08:22:49;;;;;;;12.70;11.60;;;27.70;99.90;;;;;;4937109;29;20885;-68
2021/07/13 08:25:16;;;;;;;15.03;13.73;;;27.50;99.90;;;;;;4936520;29;20307;-69
2021/07/13 08:27:42;;;;;;;13.63;12.33;;;27.50;1.00;;;;;;4936681;29;20465;-69
2021/07/13 08:30:08;;;;;;;13.10;12.00;;;27.30;99.90;;;;;;4936578;29;20432;-68
2021/07/13 08:32:34;;;;;;;11.93;11.00;;;27.00;1.00;;;;;;4920161;29;20189;-68
2021/07/13 08:35:00;;;;;;;13.73;12.33;;;27.40;99.90;;;;;;4936938;29;20470;-68
2021/07/13 08:37:27;;;;;;;13.30;11.90;;;27.70;1.00;;;;;;4936983;29;20177;-69
2021/07/13 08:39:53;;;;;;;13.60;12.40;;;28.10;1.00;;;;;;4936635;29;20176;-69
2021/07/13 08:42:18;;;;;;;11.37;10.47;;;28.30;99.90;;;;;;4936960;29;20432;-68
2021/07/13 08:44:44;;;;;;;10.60;9.80;;;28.50;1.00;;;;;;4951462;28;20625;-68
2021/07/13 08:47:16;;;;;;;10.80;9.90;;;28.30;1.00;;;;;;4955300;29;20714;-69
2021/07/13 08:49:44;;;;;;;12.07;11.07;;;28.70;1.00;;;;;;4951629;29;20280;-68
2021/07/13 08:52:09;;;;;;;10.63;9.57;;;29.10;1.00;;;;;;4936497;29;20512;-69
2021/07/13 08:54:35;;;;;;;11.07;10.17;;;29.60;99.90;;;;;;4936438;29;20551;-68
2021/07/13 08:57:01;;;;;;;10.33;9.50;;;29.30;99.90;;;;;;4936608;29;20192;-68
2021/07/13 08:59:26;;;;;;;9.57;8.87;;;29.30;99.90;;;;;;4936661;29;20566;-68
2021/07/13 09:01:52;;;;;;;10.73;9.83;;;29.50;99.90;;;;;;4936435;29;20335;-68
2021/07/13 09:04:17;;;;;;;10.20;9.40;;;29.60;99.90;;;;;;4936716;29;20239;-68
2021/07/13 09:06:54;;;;;;;11.10;10.20;;;29.00;99.90;;;;;;4936282;29;20207;-68
2021/07/13 09:09:31;;;;;;;11.20;10.30;;;28.70;99.90;;;;;;4919446;29;20547;-68
2021/07/13 09:12:21;;;;;;;11.00;10.13;;;28.60;99.90;;;;;;4936634;29;20417;-68
2021/07/13 09:15:00;;;;;;;10.73;9.70;;;28.30;1.00;;;;;;4940125;29;20522;-68
2021/07/13 09:17:39;;;;;;;11.20;10.30;;;28.10;99.90;;;;;;4940310;29;20467;-69
2021/07/13 09:20:31;;;;;;;10.07;9.20;;;28.10;1.00;;;;;;4940180;29;20873;-68
2021/07/13 09:22:58;;;;;;;10.93;10.10;;;28.80;1.00;;;;;;4940081;29;20432;-68
2021/07/13 09:25:28;;;;;;;11.23;10.33;;;28.70;99.90;;;;;;4939785;29;20438;-69
2021/07/13 09:28:15;;;;;;;11.43;10.43;;;28.90;99.90;;;;;;4939776;29;20439;-68
2021/07/13 09:30:44;;;;;;;10.27;9.37;;;29.10;99.90;;;;;;4939942;29;20451;-68
2021/07/13 09:33:18;;;;;;;9.60;8.70;;;29.00;99.90;;;;;;4922963;29;20438;-68
2021/07/13 09:36:22;;;;;;;9.60;8.80;;;28.90;99.90;;;;;;4939775;29;20468;-68
2021/07/13 09:38:48;;;;;;;10.27;9.37;;;28.80;99.90;;;;;;4881144;29;20446;-68
2021/07/13 09:41:15;;;;;;;10.87;10.07;;;28.70;99.90;;;;;;4881707;29;20434;-69
2021/07/13 09:43:47;;;;;;;12.23;11.23;;;28.70;99.90;;;;;;4915772;28;20892;-68
2021/07/13 09:46:31;;;;;;;10.37;9.57;;;28.90;99.90;;;;;;4958764;29;20439;-68
2021/07/13 09:49:06;;;;;;;10.87;9.97;;;29.50;99.90;;;;;;4958458;28;20443;-68
2021/07/13 09:51:32;;;;;;;11.30;10.27;;;29.60;99.90;;;;;;4958604;29;20443;-69
2021/07/13 09:53:57;;;;;;;10.93;9.97;;;29.80;99.90;;;;;;4958552;29;20457;-69
2021/07/13 09:56:55;;;;;;;11.07;9.93;;;29.90;99.90;;;;;;4958473;29;20185;-68
2021/07/13 09:59:21;;;;;;;9.80;9.10;;;30.00;99.90;;;;;;4958646;29;20184;-68
2021/07/13 10:01:48;;;;;;;10.13;9.33;;;29.50;91.70;;;;;;4958546;29;20454;-68
2021/07/13 10:04:14;;;;;;;10.90;10.00;;;29.30;99.90;;;;;;4958470;29;20188;-68
2021/07/13 10:06:40;;;;;;;9.77;9.00;;;29.50;99.90;;;;;;4958168;29;20439;-68
2021/07/13 10:09:13;;;;;;;8.93;8.23;;;30.20;17.50;;;;;;4958303;29;20498;-68
2021/07/13 10:11:39;;;;;;;8.80;8.10;;;30.20;1.00;;;;;;4958185;29;20439;-68
2021/07/13 10:14:09;;;;;;;9.10;8.40;;;29.90;1.00;;;;;;4958321;29;20983;-69
2021/07/13 10:16:36;;;;;;;8.67;7.97;;;29.80;1.00;;;;;;4958719;29;20760;-68
2021/07/13 10:19:05;;;;;;;9.87;8.73;;;29.90;1.00;;;;;;4958330;29;20427;-68
2021/07/13 10:21:30;;;;;;;9.10;8.40;;;29.60;1.00;;;;;;4958336;29;20438;-68
2021/07/13 10:23:57;;;;;;;8.37;7.67;;;29.50;19.00;;;;;;4953167;29;20527;-68
2021/07/13 10:26:43;;;;;;;9.33;8.57;;;29.40;1.00;;;;;;4938896;29;20185;-68
2021/07/13 10:29:33;;;;;;;9.53;8.73;;;28.90;1.00;;;;;;4939143;29;20459;-65
2021/07/13 10:32:00;;;;;;;9.63;8.83;;;28.80;99.90;;;;;;4938966;29;20451;-65
2021/07/13 10:34:52;;;;;;;8.50;7.70;;;29.00;1.00;;;;;;4938781;29;20568;-64
2021/07/13 10:37:38;;;;;;;9.83;8.97;;;29.20;6.80;;;;;;4938882;29;20531;-64
2021/07/13 10:40:06;;;;;;;9.77;9.07;;;28.80;99.90;;;;;;4938617;29;20434;-64
2021/07/13 10:42:40;;;;;;;7.77;7.20;;;28.90;99.90;;;;;;4938464;29;20439;-64
2021/07/13 10:45:29;;;;;;;8.33;7.73;;;28.90;1.00;;;;;;4956180;28;20470;-64
2021/07/13 10:47:57;;;;;;;8.60;7.90;;;29.00;1.00;;;;;;4957923;29;20746;-64
2021/07/13 10:50:22;;;;;;;7.87;7.30;;;29.10;1.00;;;;;;4957672;29;20510;-64
2021/07/13 10:52:59;;;;;;;8.57;7.87;;;29.60;1.00;;;;;;4957190;29;20540;-64
2021/07/13 10:55:31;;;;;;;8.17;7.57;;;29.40;1.00;;;;;;4957664;29;20314;-64
2021/07/13 10:58:11;;;;;;;9.40;8.60;;;29.50;1.00;;;;;;4957461;29;20427;-64
2021/07/13 11:00:56;;;;;;;9.70;8.90;;;29.40;1.00;;;;;;4957930;29;20459;-64
2021/07/13 11:03:31;;;;;;;9.27;8.57;;;29.30;16.70;;;;;;4957537;29;20469;-64
2021/07/13 11:06:05;;;;;;;9.20;8.50;;;29.40;99.40;;;;;;4957261;29;20443;-64
2021/07/13 11:09:00;;;;;;;9.33;8.63;;;29.50;1.00;;;;;;4957224;29;20515;-64
2021/07/13 11:11:28;;;;;;;9.20;8.40;;;29.50;1.00;;;;;;4957761;29;20428;-64
2021/07/13 11:14:02;;;;;;;8.60;8.00;;;29.60;1.00;;;;;;4957113;29;20440;-64
2021/07/13 11:16:35;;;;;;;9.13;8.33;;;29.80;1.00;;;;;;4957510;29;20467;-70
2021/07/13 11:19:11;;;;;;;9.50;8.70;;;30.40;1.00;;;;;;4957335;29;20411;-70
2021/07/13 11:21:40;;;;;;;9.30;8.50;;;30.70;1.00;;;;;;4957217;29;20916;-70
2021/07/13 11:24:06;;;;;;;8.27;7.67;;;30.50;1.00;;;;;;4957063;29;20836;-70
2021/07/13 11:26:34;;;;;;;9.90;9.10;;;30.10;1.00;;;;;;4957072;29;20519;-70
2021/07/13 11:29:01;;;;;;;9.07;8.37;;;29.90;80.40;;;;;;4956960;29;20181;-68
2021/07/13 11:31:29;;;;;;;8.10;7.50;;;29.30;99.90;;;;;;4956964;29;20431;-69
2021/07/13 11:34:02;;;;;;;7.90;7.30;;;29.80;1.00;;;;;;4956888;29;21024;-69
2021/07/13 11:36:39;;;;;;;8.10;7.50;;;29.90;1.00;;;;;;4955910;28;20891;-69
2021/07/13 11:39:15;;;;;;;8.37;7.77;;;29.90;1.00;;;;;;4956736;29;20434;-64
2021/07/13 11:41:41;;;;;;;8.00;7.40;;;29.90;1.00;;;;;;4956726;29;20423;-64
2021/07/13 11:44:09;;;;;;;9.43;8.50;;;29.70;1.00;;;;;;4956602;28;20912;-64
2021/07/13 11:46:40;;;;;;;8.43;7.73;;;29.70;1.00;;;;;;4955888;28;20847;-64
2021/07/13 11:49:07;;;;;;;9.50;8.70;;;29.90;1.00;;;;;;4956701;29;20777;-64
2021/07/13 11:51:41;;;;;;;8.87;8.17;;;29.80;1.00;;;;;;4956544;29;20435;-65
2021/07/13 11:54:14;;;;;;;10.20;9.03;;;29.90;1.00;;;;;;4956257;29;20852;-64
2021/07/13 11:56:43;;;;;;;10.20;9.40;;;29.70;1.00;;;;;;4956392;29;20668;-64
2021/07/13 11:59:09;;;;;;;9.30;8.50;;;29.90;1.00;;;;;;4956308;29;20420;-64
2021/07/13 12:01:37;;;;;;;9.23;8.47;;;29.90;1.00;;;;;;4956405;29;20785;-65
2021/07/13 12:04:07;;;;;;;9.50;8.67;;;29.70;1.00;;;;;;4956496;29;20427;-64
2021/07/13 12:06:33;;;;;;;8.60;7.90;;;29.70;1.00;;;;;;4939084;29;20451;-64
2021/07/13 12:09:02;;;;;;;7.93;7.33;;;29.90;1.00;;;;;;4955918;29;20515;-64
2021/07/13 12:11:32;;;;;;;8.07;7.40;;;30.00;1.00;;;;;;4956119;29;20518;-64
2021/07/13 12:14:00;;;;;;;8.03;7.40;;;30.00;1.00;;;;;;4939145;29;20432;-68
2021/07/13 12:16:31;;;;;;;7.97;7.33;;;29.70;1.00;;;;;;4956092;29;20470;-69
2021/07/13 12:19:00;;;;;;;8.07;7.47;;;29.80;1.00;;;;;;4955830;29;20424;-69
2021/07/13 12:21:27;;;;;;;7.60;6.90;;;29.70;1.00;;;;;;4955826;29;20446;-69
2021/07/13 12:23:54;;;;;;;8.53;7.83;;;29.90;1.00;;;;;;4951904;29;20437;-69
2021/07/13 12:26:31;;;;;;;7.23;6.50;;;29.90;1.00;;;;;;4936739;29;20424;-70
2021/07/13 12:29:05;;;;;;;7.57;6.97;;;29.80;1.00;;;;;;4936332;29;20520;-67
2021/07/13 12:31:33;;;;;;;7.80;7.20;;;29.50;1.00;;;;;;4936726;29;20455;-68
2021/07/13 12:33:58;;;;;;;7.80;7.20;;;29.30;1.00;;;;;;4919956;29;20429;-68
2021/07/13 12:36:29;;;;;;;8.40;7.60;;;29.10;1.00;;;;;;4936580;29;20496;-69
2021/07/13 12:38:56;;;;;;;7.50;6.80;;;29.20;1.00;;;;;;4936383;29;20203;-68
2021/07/13 12:41:25;;;;;;;8.27;7.57;;;29.40;1.00;;;;;;4936526;29;20507;-69
2021/07/13 12:43:51;;;;;;;7.23;6.63;;;29.50;1.00;;;;;;4927361;29;20498;-69